Latest Coastal Weather Observations for Yarram Airport

IDV60701

Issued at 12:05 am EST Friday 22 August 2014 (issued every 10 minutes, with the page automatically refreshed every 10 minutes)

About coastal observations | Map of coastal stations | Coastal observations for VIC | Marine services | Other Formats
Station Details ID: 085151 Name: YARRAM AIRPORT Lat: -38.56 Lon: 146.75 Height: 17.9 m
Data from the previous 72 hours. | See also: Recent months at Yarram Airport
Date/Time
EST
Temp

°C
Wind Pressure Rain
since 9am
mm
Weather Cloud Vis
km
Sea
Height
m
Swell
Dir
 
Speed
knots
Gust
knots
hPa Trend Height
m
Period
s
Dir
22/12:00am 2.9 NE 0 3 1031.3 - 0.0 - - - - - - -
 
Date/Time
EST
Temp

°C
Wind Pressure Rain
since 9am
mm
Weather Cloud Vis
km
Sea
Height
m
Swell
Dir
 
Speed
knots
Gust
knots
hPa Trend Height
m
Period
s
Dir
21/11:30pm 3.5 NNE 5 6 1031.4 - 0.0 - - - - - - -
21/11:00pm 3.1 N 5 6 1031.3 - 0.0 - - - - - - -
21/10:30pm 4.0 NE 3 4 1031.4 - 0.0 - - - - - - -
21/10:00pm 4.1 NE 4 5 1031.5 - 0.0 - - - - - - -
21/09:30pm 4.7 NNE 4 5 1031.4 - 0.0 - - - - - - -
21/09:00pm 4.6 NNE 2 5 1031.4 - 0.0 - - - - - - -
21/08:30pm 5.4 CALM 0 0 1031.2 - 0.0 - - - - - - -
21/08:00pm 5.5 CALM 0 0 1031.1 - 0.0 - - - - - - -
21/07:30pm 7.6 CALM 0 1 1030.8 - 0.0 - - - - - - -
21/07:00pm 7.1 NNE 1 3 1030.6 - 0.0 - - - - - - -
21/06:30pm 8.1 NE 4 5 1030.3 - 0.0 - - - - - - -
21/06:00pm 10.2 ENE 5 5 1030.1 - 0.0 - - - - - - -
21/05:30pm 11.2 E 6 8 1029.8 - 0.0 - - - - - - -
21/05:00pm 12.4 ENE 7 11 1029.5 - 0.0 - - - - - - -
21/04:30pm 13.1 ENE 11 16 1029.4 - 0.0 - - - - - - -
21/04:00pm 13.7 E 11 16 1029.1 - 0.0 - - - - - - -
21/03:30pm 14.4 ENE 11 18 1028.9 - 0.0 - - - - - - -
21/03:00pm 15.1 ENE 10 15 1028.9 - 0.0 - - - - - - -
21/02:30pm 15.0 E 12 19 1028.9 - 0.0 - - - - - - -
21/02:00pm 15.0 E 12 17 1029.0 - 0.0 - - - - - - -
21/01:30pm 15.3 ENE 11 16 1029.2 - 0.0 - - - - - - -
21/01:00pm 15.1 ENE 11 15 1029.6 - 0.0 - - - - - - -
21/12:30pm 15.2 ENE 9 13 1029.9 - 0.0 - - - - - - -
21/12:00pm 14.9 NE 10 16 1030.2 - 0.0 - - - - - - -
21/11:30am 14.1 ENE 11 17 1030.5 - 0.0 - - - - - - -
21/11:00am 13.7 ENE 12 18 1030.8 - 0.0 - - - - - - -
21/10:30am 13.8 ENE 10 15 1031.0 - 0.0 - - - - - - -
21/10:00am 12.9 NE 8 11 1031.0 - 0.0 - - - - - - -
21/09:30am 12.3 NNE 8 11 1031.0 - 0.0 - - - - - - -
21/09:00am 11.2 NNE 7 9 1030.9 - 0.0 - - - - - - -
21/08:30am 9.6 NNE 7 8 1030.9 - 0.0 - - - - - - -
21/08:00am 7.4 NE 6 7 1030.6 - 0.0 - - - - - - -
21/07:30am 4.5 NNE 7 8 1030.5 - 0.0 - - - - - - -
21/07:00am 2.3 NNE 8 9 1030.1 - 0.0 - - - - - - -
21/06:30am 3.2 NE 5 6 1029.9 - 0.0 - - - - - - -
21/06:00am 2.8 NE 4 5 1029.6 - 0.0 - - - - - - -
21/05:30am 5.0 ENE 5 5 1029.4 - 0.0 - - - - - - -
21/05:00am 4.2 NE 4 5 1029.2 - 0.0 - - - - - - -
21/04:30am 4.5 NE 4 5 1029.1 - 0.0 - - - - - - -
21/04:00am 6.4 NE 4 5 1028.9 - 0.0 - - - - - - -
21/03:30am 7.7 NE 5 6 1028.7 - 0.0 - - - - - - -
21/03:00am 8.1 NE 5 6 1028.7 - 0.0 - - - - - - -
21/02:30am 7.7 NNE 5 6 1028.8 - 0.0 - - - - - - -
21/02:00am 8.9 NE 5 6 1028.9 - 0.0 - - - - - - -
21/01:30am 8.5 CALM 0 0 1029.0 - 0.0 - - - - - - -
21/01:00am 8.6 NE 2 4 1029.0 - 0.0 - - - - - - -
21/12:30am 8.4 NNE 4 5 1029.1 - 0.0 - - - - - - -
21/12:00am 8.3 NNE 0 0 1029.0 - 0.0 - - - - - - -
 
Date/Time
EST
Temp

°C
Wind Pressure Rain
since 9am
mm
Weather Cloud Vis
km
Sea
Height
m
Swell
Dir
 
Speed
knots
Gust
knots
hPa Trend Height
m
Period
s
Dir
20/11:30pm 8.5 CALM 0 0 1029.1 - 0.0 - - - - - - -
20/11:00pm 8.4 CALM 0 0 1029.1 - 0.0 - - - - - - -
20/10:30pm 8.3 CALM 0 0 1029.1 - 0.0 - - - - - - -
20/10:00pm 8.4 NNE 3 4 1029.2 - 0.0 - - - - - - -
20/09:30pm 8.3 N 3 5 1029.2 - 0.0 - - - - - - -
20/09:00pm 8.4 N 3 4 1029.1 - 0.0 - - - - - - -
20/08:30pm 8.6 NNE 4 5 1028.9 - 0.0 - - - - - - -
20/08:00pm 8.7 CALM 0 0 1028.8 - 0.0 - - - - - - -
20/07:30pm 8.6 N 2 4 1028.6 - 0.0 - - - - - - -
20/07:00pm 8.8 N 3 5 1028.4 - 0.0 - - - - - - -
20/06:30pm 9.3 CALM 0 0 1028.1 - 0.0 - - - - - - -
20/06:00pm 10.0 CALM 0 0 1027.7 - 0.0 - - - - - - -
20/05:30pm 10.5 N 3 3 1027.5 - 0.0 - - - - - - -
20/05:00pm 11.1 N 3 4 1027.1 - 0.0 - - - - - - -
20/04:30pm 11.0 N 3 4 1026.9 - 0.0 - - - - - - -
20/04:00pm 10.9 WNW 3 4 1026.8 - 0.0 - - - - - - -
20/03:30pm 10.3 WSW 6 7 1026.7 - 0.0 - - - - - - -
20/03:00pm 10.4 WSW 7 9 1026.5 - 0.0 - - - - - - -
20/02:30pm 11.7 W 2 5 1026.4 - 0.0 - - - - - - -
20/02:00pm 10.6 W 6 8 1026.4 - 0.0 - - - - - - -
20/01:30pm 11.1 SW 8 10 1026.4 - 0.0 - - - - - - -
20/01:00pm 11.5 WSW 6 11 1026.4 - 0.0 - - - - - - -
20/12:30pm 11.4 SSW 8 9 1026.6 - 0.0 - - - - - - -
20/12:00pm 11.0 SW 9 11 1026.9 - 0.0 - - - - - - -
20/11:30am 12.4 NNE 3 5 1026.9 - 0.0 - - - - - - -
20/11:00am 13.0 N 5 7 1027.0 - 0.0 - - - - - - -
20/10:30am 11.3 NW 6 7 1027.1 - 0.0 - - - - - - -
20/10:00am 10.8 NW 7 8 1027.2 - 0.0 - - - - - - -
20/09:30am 10.2 WNW 5 8 1027.1 - 0.0 - - - - - - -
20/09:00am 9.5 WNW 6 8 1027.0 - 0.0 - - - - - - -
20/08:30am 8.7 W 5 7 1026.9 - 0.0 - - - - - - -
20/08:00am 8.1 W 5 6 1026.6 - 0.0 - - - - - - -
20/07:30am 7.7 NNW 6 7 1026.2 - 0.0 - - - - - - -
20/07:00am 7.4 WNW 7 9 1026.0 - 0.0 - - - - - - -
20/06:30am 7.5 W 7 8 1025.6 - 0.0 - - - - - - -
20/06:00am 7.6 WSW 6 12 1025.4 - 0.0 - - - - - - -
20/05:30am 7.3 N 5 6 1025.2 - 0.0 - - - - - - -
20/05:00am 6.7 NNW 4 6 1025.3 - 0.0 - - - - - - -
20/04:30am 6.6 CALM 0 0 1025.3 - 0.0 - - - - - - -
20/04:00am 6.1 NNW 4 5 1025.3 - 0.0 - - - - - - -
20/03:30am 4.9 N 4 5 1025.2 - 0.0 - - - - - - -
20/03:00am 4.4 WNW 3 4 1025.3 - 0.0 - - - - - - -
20/02:30am 2.5 NW 5 6 1025.3 - 0.0 - - - - - - -
20/02:00am 3.0 NW 5 6 1025.5 - 0.0 - - - - - - -
20/01:30am 4.0 NW 6 7 1025.6 - 0.0 - - - - - - -
20/01:00am 3.4 NW 6 7 1025.6 - 0.0 - - - - - - -
20/12:30am 4.0 W 5 6 1025.6 - 0.0 - - - - - - -
20/12:00am 4.1 WNW 5 6 1025.7 - 0.0 - - - - - - -
 
Date/Time
EST
Temp

°C
Wind Pressure Rain
since 9am
mm
Weather Cloud Vis
km
Sea
Height
m
Swell
Dir
 
Speed
knots
Gust
knots
hPa Trend Height
m
Period
s
Dir
19/11:30pm 5.3 W 6 7 1025.7 - 0.0 - - - - - - -
19/11:00pm 5.9 W 6 7 1025.7 - 0.0 - - - - - - -
19/10:30pm 6.2 W 5 6 1025.8 - 0.0 - - - - - - -
19/10:00pm 6.1 WNW 6 7 1025.7 - 0.0 - - - - - - -
19/09:30pm 6.4 W 6 6 1025.6 - 0.0 - - - - - - -
19/09:00pm 7.0 W 5 6 1025.6 - 0.0 - - - - - - -
19/08:30pm 6.7 WNW 4 5 1025.5 - 0.0 - - - - - - -
19/08:00pm 7.4 WNW 6 7 1025.2 - 0.0 - - - - - - -
19/07:30pm 7.8 WNW 5 6 1025.2 - 0.0 - - - - - - -
19/07:00pm 7.4 WNW 5 7 1025.0 - 0.0 - - - - - - -
19/06:30pm 8.7 WNW 5 6 1024.7 - 0.0 - - - - - - -
19/06:00pm 9.6 W 4 5 1024.3 - 0.0 - - - - - - -
19/05:30pm 10.4 W 7 8 1024.0 - 0.0 - - - - - - -
19/05:00pm 10.7 WSW 7 9 1023.8 - 0.0 - - - - - - -
19/04:30pm 11.7 WSW 9 11 1023.8 - 0.0 - - - - - - -
19/04:00pm 12.4 WSW 8 10 1023.6 - 0.0 - - - - - - -
19/03:30pm 12.2 SW 7 10 1023.6 - 0.0 - - - - - - -
19/03:00pm 12.2 SSW 5 7 1023.5 - 0.0 - - - - - - -
19/02:30pm 12.6 S 5 6 1023.6 - 0.0 - - - - - - -
19/02:00pm 12.5 S 6 7 1023.4 - 0.0 - - - - - - -
19/01:30pm 12.6 SSW 4 6 1023.6 - 0.0 - - - - - - -
19/01:00pm 12.6 SW 3 6 1023.9 - 0.0 - - - - - - -
19/12:30pm 12.3 W 4 6 1024.1 - 0.0 - - - - - - -
19/12:00pm 11.8 W 5 7 1024.4 - 0.0 - - - - - - -
19/11:30am 12.0 SW 5 7 1024.7 - 0.0 - - - - - - -
19/11:00am 12.3 S 4 6 1024.8 - 0.0 - - - - - - -
19/10:30am 12.3 SW 1 4 1024.7 - 0.0 - - - - - - -
19/10:00am 12.2 W 2 5 1024.7 - 0.0 - - - - - - -
19/09:30am 11.5 W 5 5 1024.6 - 0.0 - - - - - - -
19/09:00am 11.2 W 5 5 1024.7 - 7.4 - - - - - - -
19/08:30am 10.6 WNW 4 5 1024.6 - 7.4 - - - - - - -
19/08:00am 9.9 WNW 5 6 1024.4 - 7.4 - - - - - - -
19/07:30am 9.0 WNW 4 5 1024.2 - 7.4 - - - - - - -
19/07:00am 9.0 CALM 0 0 1023.9 - 7.4 - - - - - - -
19/06:30am 9.7 SSE 3 4 1023.6 - 7.4 - - - - - - -
19/06:00am 9.9 S 6 8 1023.4 - 7.4 - - - - - - -
19/05:30am 9.5 S 5 6 1023.2 - 7.4 - - - - - - -
19/05:00am 9.4 S 6 7 1023.0 - 7.4 - - - - - - -
19/04:30am 9.7 S 6 8 1022.8 - 7.4 - - - - - - -
19/04:00am 10.2 S 8 13 1022.8 - 7.4 - - - - - - -
19/03:30am 10.5 S 6 8 1022.7 - 7.4 - - - - - - -
19/03:00am 10.5 S 8 9 1022.6 - 7.4 - - - - - - -
19/02:30am 10.6 SSE 9 14 1022.8 - 7.4 - - - - - - -
19/02:00am 10.7 S 7 9 1022.9 - 7.4 - - - - - - -
19/01:30am 10.7 S 7 8 1022.9 - 7.4 - - - - - - -
19/01:00am 10.6 SSE 7 9 1022.7 - 7.4 - - - - - - -
19/12:30am 10.8 SSE 8 10 1022.8 - 7.4 - - - - - - -

Other Formats:

Comma delimited format used in spreadsheet applications
http://www.bom.gov.au/fwo/IDV60701/IDV60701.95890.axf

JavaScript Object Notation format (JSON) in row-major order
http://www.bom.gov.au/fwo/IDV60701/IDV60701.95890.json